Time;durP1;ratioP1;P1;durP2;ratioP2;P2;SDS_P1;SDS_P2;PMS_P1;PMS_P2;Temp;Humidity;BMP_temperature;BMP_pressure;BME280_temperature;BME280_humidity;BME280_pressure;Samples;Min_cycle;Max_cycle;Signal;HPM_P1;HPM_P2
2022/01/12 00:00:08;;;;;;;10.10;5.30;;;;;;;-4.73;100.00;98311.13;10579066;28;20213;-61
2022/01/12 00:05:10;;;;;;;11.53;6.53;;;;;;;-4.83;100.00;98325.78;10580582;28;20714;-61
2022/01/12 00:10:11;;;;;;;11.43;6.37;;;;;;;-4.86;100.00;98329.19;10579355;28;20278;-61
2022/01/12 00:15:11;;;;;;;10.23;6.27;;;;;;;-4.85;100.00;98327.50;10579555;28;20220;-61
2022/01/12 00:20:12;;;;;;;13.23;6.07;;;;;;;-5.12;100.00;98331.28;10579363;28;20178;-61
2022/01/12 00:35:45;;;;;;;12.47;6.90;;;;;;;-5.44;100.00;98335.88;10578928;28;20208;-61
2022/01/12 00:40:50;;;;;;;12.07;7.00;;;;;;;-5.30;100.00;98327.22;10578919;28;20719;-61
2022/01/12 00:45:50;;;;;;;11.27;5.30;;;;;;;-5.32;100.00;98334.06;10578250;28;20205;-61
2022/01/12 00:50:51;;;;;;;9.53;6.23;;;;;;;-5.30;100.00;98340.00;10578368;28;20312;-60
2022/01/12 00:55:52;;;;;;;9.33;6.10;;;;;;;-5.27;100.00;98347.63;10578048;28;20729;-61
2022/01/12 01:00:53;;;;;;;10.33;6.00;;;;;;;-5.37;100.00;98346.91;10559295;28;20196;-61
2022/01/12 01:05:53;;;;;;;12.27;6.10;;;;;;;-5.50;100.00;98353.00;10559705;28;20233;-61
2022/01/12 01:10:56;;;;;;;10.33;6.13;;;;;;;-5.43;100.00;98362.28;10577292;28;20308;-61
2022/01/12 01:16:06;;;;;;;9.33;5.87;;;;;;;-5.34;100.00;98351.97;10559547;28;20208;-62
2022/01/12 01:26:28;;;;;;;10.43;5.97;;;;;;;-5.28;100.00;98356.16;10559529;28;20205;-62
2022/01/12 01:31:31;;;;;;;10.10;5.57;;;;;;;-5.25;100.00;98351.88;10577354;28;20626;-61
2022/01/12 01:36:34;;;;;;;8.73;5.40;;;;;;;-5.13;100.00;98347.47;10558962;28;20201;-62
2022/01/12 01:41:35;;;;;;;9.73;6.03;;;;;;;-5.08;100.00;98344.00;10559028;28;20272;-62
2022/01/12 01:57:13;;;;;;;11.90;7.20;;;;;;;-4.90;100.00;98339.50;10577307;28;20207;-62
2022/01/12 02:02:14;;;;;;;12.73;6.93;;;;;;;-4.97;100.00;98336.19;10557639;28;20239;-62
2022/01/12 02:07:15;;;;;;;14.23;6.83;;;;;;;-5.04;100.00;98330.31;10558156;28;20188;-62
2022/01/12 02:12:28;;;;;;;10.40;5.70;;;;;;;-4.92;100.00;98328.44;10576034;28;20225;-62
2022/01/12 02:17:36;;;;;;;12.03;5.70;;;;;;;-4.78;100.00;98323.16;10556626;28;20213;-61
2022/01/12 02:54:31;;;;;;;11.00;6.00;;;;;;;-3.86;100.00;98320.81;10564350;28;20741;-61
2022/01/12 02:59:31;;;;;;;11.90;7.23;;;;;;;-3.88;100.00;98325.13;10564276;28;20186;-62
2022/01/12 03:04:32;;;;;;;24.03;13.17;;;;;;;-3.67;100.00;98326.47;10564037;28;20306;-62
2022/01/12 03:09:32;;;;;;;15.77;7.30;;;;;;;-3.58;100.00;98327.13;10564025;28;20649;-61
2022/01/12 03:14:33;;;;;;;9.37;5.50;;;;;;;-3.52;100.00;98325.31;10563869;28;20582;-61
2022/01/12 03:19:34;;;;;;;13.23;6.60;;;;;;;-3.41;100.00;98323.41;10581836;28;20173;-60
2022/01/12 03:24:34;;;;;;;15.07;9.77;;;;;;;-3.42;100.00;98321.72;10563317;28;20266;-61
2022/01/12 03:29:35;;;;;;;13.03;6.93;;;;;;;-3.35;100.00;98318.16;10581505;28;20206;-61
2022/01/12 03:34:37;;;;;;;34.47;15.40;;;;;;;-3.42;100.00;98302.06;10579818;28;20209;-62
2022/01/12 03:39:38;;;;;;;12.37;7.00;;;;;;;-3.46;100.00;98302.16;10562899;28;20544;-62
2022/01/12 03:44:38;;;;;;;12.73;5.80;;;;;;;-3.30;100.00;98310.38;10562324;28;20206;-62
2022/01/12 03:49:39;;;;;;;8.50;5.27;;;;;;;-3.31;100.00;98316.38;10563284;28;20262;-62
2022/01/12 03:54:40;;;;;;;8.23;5.20;;;;;;;-3.20;100.00;98306.78;10562566;28;20225;-62
2022/01/12 03:59:42;;;;;;;13.13;5.67;;;;;;;-3.09;100.00;98316.78;10579865;28;20210;-61
2022/01/12 04:05:06;;;;;;;15.87;6.40;;;;;;;-3.03;100.00;98321.78;10515971;28;20329;-62
2022/01/12 04:10:03;;;;;;;17.97;7.63;;;;;;;-2.91;100.00;98313.84;10484765;22;20232;-63
2022/01/12 04:15:04;;;;;;;22.70;9.33;;;;;;;-2.97;100.00;98308.84;10436178;28;20184;-65
2022/01/12 04:20:04;;;;;;;19.37;8.93;;;;;;;-2.91;100.00;98313.84;10436203;28;20214;-63
2022/01/12 04:25:05;;;;;;;23.60;10.53;;;;;;;-2.87;100.00;98310.31;10453859;28;20203;-66
2022/01/12 04:30:06;;;;;;;18.73;8.60;;;;;;;-2.78;100.00;98318.69;10453394;28;20246;-65
2022/01/12 04:35:07;;;;;;;16.37;7.37;;;;;;;-2.80;100.00;98312.72;10453623;28;20180;-63
2022/01/12 04:40:08;;;;;;;11.33;6.10;;;;;;;-2.76;100.00;98312.63;10453002;28;20650;-66
2022/01/12 04:50:28;;;;;;;8.23;5.10;;;;;;;-2.76;100.00;98322.06;10435058;28;20234;-65
2022/01/12 04:55:28;;;;;;;10.77;5.77;;;;;;;-2.73;100.00;98327.13;10435344;28;20195;-65
2022/01/12 05:00:30;;;;;;;8.27;4.50;;;;;;;-2.73;100.00;98327.13;10434262;28;20202;-64
2022/01/12 05:16:10;;;;;;;11.20;5.73;;;;;;;-2.59;100.00;98340.50;10434662;28;20187;-63
2022/01/12 05:21:12;;;;;;;19.87;6.07;;;;;;;-2.54;100.00;98338.66;10434505;28;20187;-64
2022/01/12 05:26:13;;;;;;;10.73;5.73;;;;;;;-2.58;100.00;98344.72;10452162;28;20215;-65
2022/01/12 05:31:13;;;;;;;7.53;5.40;;;;;;;-2.54;100.00;98345.53;10434474;28;20226;-63
2022/01/12 05:36:17;;;;;;;7.93;4.90;;;;;;;-2.55;100.00;98336.97;10433932;28;20219;-65
2022/01/12 05:41:18;;;;;;;10.40;6.10;;;;;;;-2.48;100.00;98345.38;10450924;28;20184;-66
2022/01/12 05:46:24;;;;;;;7.87;4.97;;;;;;;-2.57;100.00;98364.38;10450613;28;20212;-64
2022/01/12 05:51:25;;;;;;;9.67;5.63;;;;;;;-2.52;100.00;98354.03;10433983;28;20211;-66
2022/01/12 05:56:26;;;;;;;10.50;5.17;;;;;;;-2.52;100.00;98344.59;10435193;28;20709;-65
2022/01/12 06:01:26;;;;;;;10.00;5.90;;;;;;;-2.67;100.00;98355.19;10458877;28;20230;-65
2022/01/12 06:06:27;;;;;;;10.43;5.57;;;;;;;-2.68;100.00;98358.63;10441553;28;20228;-64
2022/01/12 06:11:27;;;;;;;15.17;6.30;;;;;;;-2.67;100.00;98355.19;10458842;28;20223;-65
2022/01/12 06:16:30;;;;;;;9.57;5.17;;;;;;;-2.51;100.00;98365.97;10441085;28;20220;-65
2022/01/12 06:21:30;;;;;;;13.90;6.00;;;;;;;-2.46;100.00;98374.41;10440939;28;20272;-65
2022/01/12 06:26:37;;;;;;;14.20;5.63;;;;;;;-2.39;100.00;98370.84;10440580;28;20212;-64
2022/01/12 06:31:39;;;;;;;10.00;5.83;;;;;;;-2.42;100.00;98378.59;10440660;28;20250;-64
2022/01/12 06:36:39;;;;;;;11.93;5.70;;;;;;;-2.31;100.00;98383.50;10456788;28;20214;-64
2022/01/12 06:41:41;;;;;;;14.57;5.67;;;;;;;-2.34;100.00;98398.97;10440406;28;20190;-65
2022/01/12 06:46:42;;;;;;;12.93;6.57;;;;;;;-2.38;100.00;98399.91;10457948;28;20207;-67
2022/01/12 06:51:46;;;;;;;13.97;6.10;;;;;;;-2.47;100.00;98398.38;10439620;28;20220;-65
2022/01/12 06:56:47;;;;;;;10.13;5.90;;;;;;;-2.35;100.00;98400.66;10439548;28;20242;-66
2022/01/12 07:01:48;;;;;;;14.47;6.60;;;;;;;-2.27;100.00;98394.53;10438955;28;20184;-63
2022/01/12 07:06:52;;;;;;;11.60;6.83;;;;;;;-2.36;100.00;98393.88;10455360;28;20315;-63
2022/01/12 07:11:55;;;;;;;12.50;6.93;;;;;;;-2.26;100.00;98407.31;10457599;28;20215;-65
2022/01/12 07:17:03;;;;;;;14.67;7.10;;;;;;;-2.21;100.00;98410.63;10480564;28;20203;-64
2022/01/12 07:22:03;;;;;;;15.23;7.47;;;;;;;-2.23;100.00;98412.38;10497723;28;20183;-65
2022/01/12 07:27:04;;;;;;;12.87;6.40;;;;;;;-2.28;100.00;98411.66;10497997;28;20203;-62
2022/01/12 07:32:05;;;;;;;12.73;7.03;;;;;;;-2.26;100.00;98420.16;10495129;28;20649;-65
2022/01/12 07:37:05;;;;;;;13.60;6.60;;;;;;;-2.19;100.00;98414.00;10461819;28;20224;-66
2022/01/12 07:42:06;;;;;;;9.70;5.93;;;;;;;-2.12;100.00;98411.31;10455881;28;20192;-65
2022/01/12 07:47:08;;;;;;;14.53;7.30;;;;;;;-2.16;100.00;98407.94;10455273;28;20208;-66
2022/01/12 07:52:08;;;;;;;13.80;6.97;;;;;;;-2.01;100.00;98410.16;10455331;28;20220;-65
2022/01/12 07:57:08;;;;;;;12.73;7.10;;;;;;;-1.74;100.00;98412.09;10455078;28;20212;-65
2022/01/12 08:02:09;;;;;;;14.00;7.77;;;;;;;-1.79;100.00;98417.38;10450982;28;20195;-65
2022/01/12 08:07:11;;;;;;;36.40;16.77;;;;;;;-1.51;100.00;98409.78;10433815;28;20250;-65
2022/01/12 08:12:11;;;;;;;14.53;8.47;;;;;;;-1.12;100.00;98421.63;10464092;28;20715;-65
2022/01/12 08:17:12;;;;;;;14.33;7.70;;;;;;;-0.94;100.00;98423.69;10490853;28;20302;-65
2022/01/12 08:22:12;;;;;;;12.80;7.17;;;;;;;-0.92;100.00;98427.09;10493175;28;20195;-64
2022/01/12 08:27:12;;;;;;;10.67;7.00;;;;;;;-0.80;100.00;98437.91;10490668;28;20229;-65
2022/01/12 08:32:13;;;;;;;10.53;5.63;;;;;;;-0.69;100.00;98445.31;10484459;28;20242;-66
2022/01/12 08:37:13;;;;;;;10.47;6.30;;;;;;;-0.70;100.00;98423.03;10493767;28;20215;-66
2022/01/12 08:42:13;;;;;;;12.07;6.57;;;;;;;-0.79;100.00;98427.56;10492206;28;20199;-66
2022/01/12 08:47:14;;;;;;;12.17;7.40;;;;;;;-0.80;100.00;98435.34;10498907;28;20219;-65
2022/01/12 08:52:14;;;;;;;12.47;7.07;;;;;;;-0.71;100.00;98442.78;10490605;28;20313;-62
2022/01/12 08:57:14;;;;;;;12.63;6.67;;;;;;;-0.56;100.00;98444.09;10494614;28;20272;-65
2022/01/12 09:02:15;;;;;;;11.00;6.77;;;;;;;-0.42;100.00;98447.09;10496576;28;20219;-64
2022/01/12 09:07:15;;;;;;;11.33;6.07;;;;;;;0.25;100.00;98432.19;10498099;28;20292;-64
2022/01/12 09:12:16;;;;;;;9.37;5.47;;;;;;;1.13;100.00;98422.28;10494042;28;20739;-65
2022/01/12 09:17:18;;;;;;;9.97;5.87;;;;;;;1.84;100.00;98414.50;10493937;28;20214;-64
2022/01/12 09:22:19;;;;;;;8.33;5.07;;;;;;;1.77;100.00;98438.88;10493575;28;20227;-62
2022/01/12 09:27:19;;;;;;;8.87;5.50;;;;;;;2.40;97.68;98407.09;10495191;28;20254;-64
2022/01/12 09:32:20;;;;;;;10.67;7.37;;;;;;;0.96;99.91;98440.97;10498065;28;20215;-64
2022/01/12 09:37:21;;;;;;;10.00;6.60;;;;;;;1.69;100.00;98439.19;10501517;28;20221;-62
2022/01/12 09:42:22;;;;;;;11.63;7.10;;;;;;;2.06;99.50;98408.47;10499359;28;20195;-65
2022/01/12 09:47:22;;;;;;;13.27;6.67;;;;;;;1.24;99.64;98411.56;10500366;28;20700;-60
2022/01/12 09:52:23;;;;;;;9.37;5.87;;;;;;;2.53;96.17;98399.66;10499918;28;20792;-60
2022/01/12 09:57:23;;;;;;;12.00;7.73;;;;;;;1.39;98.64;98423.09;10499670;28;20711;-62
2022/01/12 10:02:24;;;;;;;12.37;6.43;;;;;;;1.78;97.05;98407.81;10499645;28;20183;-62
2022/01/12 10:07:25;;;;;;;10.00;6.13;;;;;;;2.68;93.08;98378.34;10499944;23;20251;-59
2022/01/12 10:12:27;;;;;;;10.93;6.17;;;;;;;3.77;89.38;98356.16;10457692;28;20694;-60
2022/01/12 10:17:41;;;;;;;9.07;5.97;;;;;;;2.06;92.29;98396.38;10406671;28;20768;-64
2022/01/12 10:23:06;;;;;;;9.10;6.03;;;;;;;2.01;93.28;98413.84;10415814;28;20267;-62
2022/01/12 10:28:15;;;;;;;13.53;8.00;;;;;;;0.63;100.00;98458.44;10415717;28;20247;-59
2022/01/12 10:33:15;;;;;;;9.83;6.53;;;;;;;0.85;100.00;98463.72;10420663;28;20215;-60
2022/01/12 10:38:16;;;;;;;12.20;6.50;;;;;;;1.04;100.00;98454.47;10454896;28;20577;-63
2022/01/12 10:43:30;;;;;;;17.60;6.53;;;;;;;0.95;100.00;98441.88;10453625;28;20219;-60
2022/01/12 10:48:45;;;;;;;12.40;7.37;;;;;;;0.79;100.00;98422.66;10454982;28;20617;-60
2022/01/12 10:53:49;;;;;;;10.80;7.00;;;;;;;0.83;100.00;98417.34;10455375;28;20252;-60
2022/01/12 10:58:51;;;;;;;9.57;6.17;;;;;;;1.37;100.00;98428.31;10455662;28;20250;-62
2022/01/12 11:03:52;;;;;;;11.90;7.50;;;;;;;1.10;100.00;98413.84;10455519;28;20187;-61
2022/01/12 11:08:52;;;;;;;11.27;7.50;;;;;;;1.00;100.00;98405.59;10454769;28;20235;-62
2022/01/12 11:13:53;;;;;;;12.63;8.50;;;;;;;0.59;100.00;98403.53;10437857;28;20566;-60
2022/01/12 11:18:54;;;;;;;15.40;7.73;;;;;;;0.99;100.00;98394.41;10453552;28;20593;-62
2022/01/12 11:23:58;;;;;;;13.63;7.50;;;;;;;0.64;100.00;98419.69;10436956;28;20193;-61
2022/01/12 11:28:59;;;;;;;12.40;8.07;;;;;;;0.71;100.00;98400.53;10454685;28;20222;-59
2022/01/12 11:34:00;;;;;;;15.50;7.10;;;;;;;1.56;100.00;98369.06;10454248;28;20205;-62
2022/01/12 11:39:01;;;;;;;9.80;5.20;;;;;;;1.48;100.00;98358.19;10436242;28;20215;-62
2022/01/12 11:44:06;;;;;;;11.97;6.47;;;;;;;1.33;100.00;98364.78;10453373;28;20658;-60
2022/01/12 11:49:06;;;;;;;10.60;6.30;;;;;;;1.69;100.00;98364.25;10453492;28;20721;-62
2022/01/12 11:54:08;;;;;;;10.07;6.23;;;;;;;1.12;100.00;98366.44;10451288;28;20248;-63
2022/01/12 11:59:13;;;;;;;14.53;7.03;;;;;;;1.10;100.00;98381.09;10453505;28;20252;-61
2022/01/12 12:04:25;;;;;;;11.50;6.40;;;;;;;1.59;100.00;98376.72;10452869;28;20282;-62
2022/01/12 12:09:35;;;;;;;10.80;6.53;;;;;;;1.34;100.00;98370.78;10451046;28;20705;-63
2022/01/12 12:14:35;;;;;;;12.00;7.63;;;;;;;1.74;100.00;98372.66;10452654;28;20692;-61
2022/01/12 12:19:44;;;;;;;13.20;7.40;;;;;;;1.48;100.00;98368.50;10543245;27;20594;-63
2022/01/12 12:24:47;;;;;;;15.27;9.20;;;;;;;1.33;100.00;98371.69;10527507;28;20198;-61
2022/01/12 12:29:49;;;;;;;11.60;8.10;;;;;;;0.87;100.00;98374.19;10509997;28;20211;-61
2022/01/12 12:35:00;;;;;;;12.30;8.00;;;;;;;1.56;100.00;98368.22;10528130;28;20225;-61
2022/01/12 12:40:11;;;;;;;14.53;9.07;;;;;;;1.02;100.00;98372.81;10527309;28;20222;-61
2022/01/12 12:45:12;;;;;;;16.33;8.10;;;;;;;0.97;100.00;98378.16;10526303;28;20239;-61
2022/01/12 12:50:14;;;;;;;17.10;8.73;;;;;;;1.11;100.00;98377.66;10525716;28;20279;-61
2022/01/12 12:55:15;;;;;;;15.87;8.33;;;;;;;1.31;100.00;98383.81;10524342;28;20211;-61
2022/01/12 13:00:19;;;;;;;13.87;7.30;;;;;;;1.74;100.00;98377.00;10526078;28;20214;-61
2022/01/12 13:05:21;;;;;;;16.90;7.80;;;;;;;1.20;100.00;98391.97;10527125;28;20217;-60
2022/01/12 13:10:24;;;;;;;14.43;8.27;;;;;;;1.65;100.00;98398.03;10526272;28;20210;-62
2022/01/12 13:15:27;;;;;;;12.07;7.90;;;;;;;1.30;100.00;98408.78;10526787;28;20244;-60
2022/01/12 13:25:54;;;;;;;22.27;12.60;;;;;;;1.02;100.00;98403.78;10525646;28;20632;-60
2022/01/12 13:31:00;;;;;;;17.90;10.00;;;;;;;1.11;100.00;98408.63;10496368;28;20214;-59
2022/01/12 13:36:14;;;;;;;12.93;7.20;;;;;;;1.34;100.00;98407.78;10496558;28;20222;-61
2022/01/12 13:41:16;;;;;;;16.53;8.30;;;;;;;1.13;100.00;98417.13;10497157;28;20207;-62
2022/01/12 13:46:18;;;;;;;13.20;8.33;;;;;;;0.92;100.00;98428.22;10497444;28;20248;-60
2022/01/12 13:51:26;;;;;;;13.13;7.00;;;;;;;1.45;100.00;98411.69;10496918;28;20209;-63
2022/01/12 13:56:33;;;;;;;12.63;6.90;;;;;;;1.29;100.00;98424.31;10497024;28;20697;-61
2022/01/12 14:01:36;;;;;;;15.30;7.13;;;;;;;1.66;100.00;98397.13;10495825;28;20544;-62
2022/01/12 14:06:39;;;;;;;12.20;7.17;;;;;;;1.89;100.00;98401.41;10496243;28;20657;-62
2022/01/12 14:11:39;;;;;;;11.10;6.90;;;;;;;2.21;100.00;98366.50;10496507;28;20329;-62
2022/01/12 14:16:39;;;;;;;10.37;6.10;;;;;;;1.59;100.00;98389.63;10496303;28;20290;-61
2022/01/12 14:21:41;;;;;;;15.57;6.90;;;;;;;1.19;100.00;98406.59;10496032;28;20183;-62
2022/01/12 14:26:42;;;;;;;19.73;11.00;;;;;;;0.89;100.00;98411.13;10495289;28;20221;-62
2022/01/12 14:31:43;;;;;;;12.77;7.57;;;;;;;0.85;100.00;98410.38;10494648;28;20282;-62
2022/01/12 14:36:43;;;;;;;10.97;7.17;;;;;;;0.87;100.00;98397.41;10495377;28;20688;-62
2022/01/12 14:41:43;;;;;;;15.40;7.50;;;;;;;0.98;100.00;98389.31;10493713;28;20201;-62
2022/01/12 14:46:44;;;;;;;12.50;7.40;;;;;;;0.88;100.00;98399.94;10494286;28;20200;-61
2022/01/12 14:51:44;;;;;;;14.73;8.00;;;;;;;0.83;100.00;98398.44;10493891;28;20202;-63
2022/01/12 14:56:44;;;;;;;18.13;9.50;;;;;;;0.66;100.00;98386.97;10494180;28;20226;-59
2022/01/12 15:01:45;;;;;;;14.27;8.27;;;;;;;0.76;100.00;98391.81;10494690;28;20245;-62
2022/01/12 15:06:45;;;;;;;16.23;8.73;;;;;;;0.72;100.00;98391.09;10492990;28;20224;-63
2022/01/12 15:11:49;;;;;;;15.83;8.53;;;;;;;0.68;100.00;98389.50;10494713;28;20238;-62
2022/01/12 15:16:49;;;;;;;20.03;8.73;;;;;;;0.63;100.00;98397.41;10493802;28;20743;-63
2022/01/12 15:21:50;;;;;;;31.87;12.50;;;;;;;0.71;100.00;98397.13;10493920;28;20187;-61
2022/01/12 15:26:51;;;;;;;118.17;45.57;;;;;;;0.73;100.00;98394.50;10492356;28;20722;-62
2022/01/12 15:31:51;;;;;;;78.50;35.33;;;;;;;0.50;100.00;98388.38;10491977;28;20689;-63
2022/01/12 15:36:52;;;;;;;79.23;38.67;;;;;;;0.47;100.00;98381.59;10490961;28;20287;-64
2022/01/12 15:41:52;;;;;;;28.33;16.87;;;;;;;0.51;100.00;98387.50;10492172;28;20194;-63
2022/01/12 15:46:53;;;;;;;22.97;11.90;;;;;;;0.53;100.00;98403.75;10482515;28;20224;-63
2022/01/12 15:51:54;;;;;;;15.10;9.20;;;;;;;0.63;100.00;98417.16;10492665;28;20198;-63
2022/01/12 15:56:55;;;;;;;15.80;9.33;;;;;;;0.50;100.00;98422.75;10492048;28;20230;-60
2022/01/12 16:01:55;;;;;;;19.67;9.10;;;;;;;0.67;100.00;98424.78;10492808;28;20189;-62
2022/01/12 16:06:56;;;;;;;16.17;10.23;;;;;;;0.66;100.00;98433.41;10490971;28;20217;-63
2022/01/12 16:11:57;;;;;;;21.07;11.67;;;;;;;0.62;100.00;98451.59;10492383;28;20197;-61
2022/01/12 16:17:01;;;;;;;15.97;9.83;;;;;;;0.47;100.00;98458.94;10491471;28;20241;-61
2022/01/12 16:22:01;;;;;;;19.43;9.03;;;;;;;0.48;100.00;98460.63;10491696;28;20260;-63
2022/01/12 16:27:03;;;;;;;18.03;10.10;;;;;;;0.68;100.00;98444.50;10491578;28;20221;-63
2022/01/12 16:32:04;;;;;;;18.10;9.23;;;;;;;0.73;100.00;98451.25;10492019;28;20186;-61
2022/01/12 16:37:05;;;;;;;15.63;9.27;;;;;;;0.76;100.00;98443.41;10491527;28;20320;-61
2022/01/12 16:42:06;;;;;;;45.77;17.40;;;;;;;0.76;100.00;98451.13;10490172;28;20205;-58
2022/01/12 16:47:06;;;;;;;21.57;10.87;;;;;;;0.70;100.00;98463.38;10490949;28;20217;-63
2022/01/12 16:52:07;;;;;;;18.37;10.87;;;;;;;0.67;100.00;98460.03;10491523;28;20186;-63
2022/01/12 16:57:08;;;;;;;19.10;9.27;;;;;;;0.76;100.00;98458.88;10490451;28;20230;-62
2022/01/12 17:02:08;;;;;;;16.97;9.23;;;;;;;0.77;100.00;98451.09;10488475;28;20195;-61
2022/01/12 17:07:08;;;;;;;18.83;9.97;;;;;;;0.79;100.00;98469.09;10498977;28;20249;-62
2022/01/12 17:12:09;;;;;;;20.67;11.50;;;;;;;0.67;100.00;98467.75;10497996;28;20289;-62
2022/01/12 17:17:41;;;;;;;22.83;10.30;;;;;;;0.71;100.00;98472.75;10492782;28;20245;-62
2022/01/12 17:22:41;;;;;;;22.27;12.10;;;;;;;0.61;100.00;98470.53;10499099;28;20195;-63
2022/01/12 17:27:57;;;;;;;20.80;10.70;;;;;;;0.68;100.00;98472.88;10499691;28;20301;-61
2022/01/12 17:32:58;;;;;;;22.27;11.43;;;;;;;0.64;100.00;98465.28;10499448;28;20205;-62
2022/01/12 17:37:58;;;;;;;19.03;9.30;;;;;;;0.62;100.00;98462.75;10499444;28;20241;-59
2022/01/12 17:42:58;;;;;;;19.83;11.10;;;;;;;0.59;100.00;98486.06;10499283;28;20203;-61
2022/01/12 17:48:00;;;;;;;16.87;10.03;;;;;;;0.72;100.00;98489.09;10499008;28;20241;-62
2022/01/12 17:53:00;;;;;;;19.40;10.97;;;;;;;0.75;100.00;98496.75;10498840;28;20222;-63
2022/01/12 17:58:01;;;;;;;24.07;13.17;;;;;;;0.57;100.00;98495.59;10498027;28;20226;-63
2022/01/12 18:03:03;;;;;;;26.80;12.23;;;;;;;0.63;100.00;98486.81;10498586;28;20186;-63
2022/01/12 18:08:03;;;;;;;23.43;13.13;;;;;;;0.50;100.00;98474.31;10497784;28;20289;-60
2022/01/12 18:13:04;;;;;;;25.33;14.90;;;;;;;0.46;100.00;98457.28;10497864;28;20220;-62
2022/01/12 18:18:08;;;;;;;43.00;20.70;;;;;;;0.45;100.00;98468.47;10497721;28;20237;-63
2022/01/12 18:23:08;;;;;;;91.00;35.33;;;;;;;0.41;100.00;98482.34;10497487;28;20192;-61
2022/01/12 18:28:09;;;;;;;27.60;16.53;;;;;;;0.39;100.00;98507.34;10497575;28;20213;-63
2022/01/12 18:33:09;;;;;;;28.73;15.13;;;;;;;0.33;100.00;98497.22;10497075;28;20207;-60
2022/01/12 18:38:11;;;;;;;29.17;15.97;;;;;;;0.26;100.00;98493.16;10496932;28;20231;-61
2022/01/12 18:43:16;;;;;;;28.50;16.80;;;;;;;0.28;100.00;98501.69;10496855;28;20191;-64
2022/01/12 18:48:16;;;;;;;30.80;16.27;;;;;;;0.35;100.00;98508.31;10496069;28;20620;-61
2022/01/12 18:53:17;;;;;;;28.50;14.53;;;;;;;0.48;100.00;98525.09;10496425;28;20187;-62
2022/01/12 18:58:17;;;;;;;31.23;16.27;;;;;;;0.40;100.00;98516.78;10495229;28;20234;-60
2022/01/12 19:03:17;;;;;;;28.80;16.77;;;;;;;0.42;100.00;98520.13;10495676;28;20560;-63
2022/01/12 19:08:18;;;;;;;33.60;17.30;;;;;;;0.43;100.00;98532.16;10495364;28;20239;-62
2022/01/12 19:13:20;;;;;;;37.10;17.97;;;;;;;0.42;100.00;98547.66;10495252;28;20185;-61
2022/01/12 19:18:20;;;;;;;37.43;18.90;;;;;;;0.46;100.00;98538.91;10494851;28;20234;-57
2022/01/12 19:23:22;;;;;;;38.77;19.03;;;;;;;0.49;100.00;98536.25;10494686;28;20264;-64
2022/01/12 19:28:23;;;;;;;39.47;19.40;;;;;;;0.41;100.00;98533.06;10494159;28;20581;-62
2022/01/12 19:33:24;;;;;;;52.23;21.87;;;;;;;0.34;100.00;98535.00;10494354;28;20186;-61
2022/01/12 19:38:25;;;;;;;51.97;22.93;;;;;;;0.31;100.00;98535.09;10494122;28;20251;-64
2022/01/12 19:43:26;;;;;;;50.93;21.67;;;;;;;0.31;100.00;98551.41;10494271;28;20191;-58
2022/01/12 19:48:27;;;;;;;55.17;22.90;;;;;;;0.38;100.00;98539.16;10493929;28;20218;-61
2022/01/12 19:53:30;;;;;;;56.27;22.10;;;;;;;0.23;100.00;98548.22;10494078;28;20191;-63
2022/01/12 19:58:43;;;;;;;48.27;20.60;;;;;;;0.35;100.00;98547.84;10493517;28;20236;-61
2022/01/12 20:03:43;;;;;;;42.67;19.87;;;;;;;0.43;100.00;98544.16;10493575;28;20189;-62
2022/01/12 20:08:46;;;;;;;47.83;19.80;;;;;;;0.45;100.00;98552.72;10493089;28;20199;-62
2022/01/12 20:13:47;;;;;;;46.73;19.70;;;;;;;0.49;100.00;98549.13;10491189;28;20201;-60
2022/01/12 20:24:27;;;;;;;43.93;20.13;;;;;;;0.52;100.00;98554.19;10490693;28;20193;-60
2022/01/12 20:29:33;;;;;;;44.40;20.77;;;;;;;0.42;100.00;98547.66;10489682;28;20213;-64
2022/01/12 20:34:42;;;;;;;45.20;20.03;;;;;;;0.48;100.00;98556.03;10490209;28;20216;-62
2022/01/12 20:39:43;;;;;;;40.27;19.13;;;;;;;0.53;100.00;98559.31;10491107;28;20237;-63
2022/01/12 20:44:45;;;;;;;37.33;18.67;;;;;;;0.34;100.00;98555.63;10500976;28;20194;-63
2022/01/12 20:49:45;;;;;;;34.60;18.37;;;;;;;0.23;100.00;98555.09;10500864;28;20583;-59
2022/01/12 20:54:45;;;;;;;40.13;20.67;;;;;;;0.39;100.00;98550.34;10500638;28;20199;-64
2022/01/12 20:59:46;;;;;;;36.23;19.93;;;;;;;0.51;100.00;98553.34;10500170;28;20230;-64
2022/01/12 21:04:48;;;;;;;44.43;19.43;;;;;;;0.54;100.00;98560.16;10500556;28;20670;-63
2022/01/12 21:09:49;;;;;;;34.60;19.37;;;;;;;0.50;100.00;98566.31;10499890;28;20301;-64
2022/01/12 21:14:49;;;;;;;35.53;17.50;;;;;;;0.35;100.00;98568.47;10499988;28;20209;-63
2022/01/12 21:19:50;;;;;;;30.87;19.37;;;;;;;0.39;100.00;98571.78;10499164;28;20679;-63
2022/01/12 21:24:50;;;;;;;34.80;18.00;;;;;;;0.57;100.00;98572.97;10499393;28;20187;-64
2022/01/12 21:29:50;;;;;;;34.60;18.43;;;;;;;0.41;100.00;98580.31;10499420;28;20273;-60
2022/01/12 21:34:54;;;;;;;37.07;19.20;;;;;;;0.45;100.00;98581.09;10480309;28;20198;-63
2022/01/12 21:39:57;;;;;;;38.10;19.97;;;;;;;0.41;100.00;98582.88;10498767;28;20281;-63
2022/01/12 21:44:59;;;;;;;34.37;18.60;;;;;;;0.48;100.00;98592.13;10498792;28;20203;-63
2022/01/12 21:49:59;;;;;;;34.47;18.57;;;;;;;0.46;100.00;98577.59;10497962;28;20301;-62
2022/01/12 21:54:59;;;;;;;31.33;17.53;;;;;;;0.39;100.00;98592.41;10498789;28;20293;-62
2022/01/12 22:00:00;;;;;;;33.17;18.10;;;;;;;0.43;100.00;98582.84;10497520;28;20253;-62
2022/01/12 22:05:03;;;;;;;31.60;16.13;;;;;;;0.50;100.00;98586.94;10498311;28;20195;-62
2022/01/12 22:10:05;;;;;;;36.40;16.90;;;;;;;0.49;100.00;98588.69;10497763;28;20369;-60
2022/01/12 22:15:06;;;;;;;32.47;16.27;;;;;;;0.62;100.00;98591.72;10448283;23;20266;-63
2022/01/12 22:20:07;;;;;;;29.20;15.50;;;;;;;0.40;100.00;98576.06;10414782;28;20624;-63
2022/01/12 22:25:08;;;;;;;27.73;15.23;;;;;;;0.49;100.00;98574.91;10414805;28;20214;-63
2022/01/12 22:30:09;;;;;;;30.27;15.33;;;;;;;0.57;100.00;98588.44;10414721;28;20196;-63
2022/01/12 22:35:09;;;;;;;29.60;16.23;;;;;;;0.65;100.00;98593.34;10414618;28;20220;-63
2022/01/12 22:40:10;;;;;;;33.43;17.53;;;;;;;0.51;100.00;98598.94;10413652;28;20192;-61
2022/01/12 22:45:11;;;;;;;33.10;16.70;;;;;;;0.42;100.00;98594.91;10414241;28;20223;-64
2022/01/12 22:50:12;;;;;;;32.13;17.87;;;;;;;0.40;100.00;98596.69;10414437;28;20285;-63
2022/01/12 22:55:12;;;;;;;32.10;16.13;;;;;;;0.52;100.00;98587.72;10414075;28;20273;-63
2022/01/12 23:00:15;;;;;;;36.73;17.87;;;;;;;0.46;100.00;98583.63;10412903;28;20199;-63
2022/01/12 23:05:15;;;;;;;27.97;16.03;;;;;;;0.71;100.00;98580.25;10413835;28;20583;-63
2022/01/12 23:10:16;;;;;;;27.83;16.77;;;;;;;0.66;100.00;98585.56;10413301;28;20203;-63
2022/01/12 23:15:16;;;;;;;32.60;17.00;;;;;;;0.32;100.00;98586.63;10413202;28;20228;-63
2022/01/12 23:20:16;;;;;;;32.60;17.03;;;;;;;0.34;100.00;98592.56;10412942;28;20671;-63
2022/01/12 23:25:18;;;;;;;29.87;16.83;;;;;;;0.42;100.00;98582.00;10412890;28;20212;-63
2022/01/12 23:30:19;;;;;;;32.23;16.60;;;;;;;0.34;100.00;98587.41;10412880;28;20189;-61
2022/01/12 23:41:58;;;;;;;33.63;17.70;;;;;;;0.26;100.00;98573.91;10412311;28;20652;-63
2022/01/12 23:51:55;;;;;;;26.40;11.93;;;;;;;0.24;100.00;98574.84;10433055;28;20280;-63
2022/01/12 23:56:56;;;;;;;19.97;11.87;;;;;;;0.32;100.00;98572.88;10411536;28;20233;-63
